sensor_id;sensor_type;location;lat;lon;timestamp;P1;durP1;ratioP1;P2;durP2;ratioP2
1446;SDS011;717;51.522;7.266;2023-02-28T00:01:34;1.73;;;1.60;;
1446;SDS011;717;51.522;7.266;2023-02-28T00:04:03;3.00;;;1.63;;
1446;SDS011;717;51.522;7.266;2023-02-28T00:06:36;3.80;;;1.17;;
1446;SDS011;717;51.522;7.266;2023-02-28T00:09:07;1.70;;;1.23;;
1446;SDS011;717;51.522;7.266;2023-02-28T00:11:35;3.10;;;1.27;;
1446;SDS011;717;51.522;7.266;2023-02-28T00:14:04;3.43;;;1.50;;
1446;SDS011;717;51.522;7.266;2023-02-28T00:16:32;1.77;;;1.30;;
1446;SDS011;717;51.522;7.266;2023-02-28T00:19:01;2.13;;;1.40;;
1446;SDS011;717;51.522;7.266;2023-02-28T00:21:29;1.73;;;1.10;;
1446;SDS011;717;51.522;7.266;2023-02-28T00:24:01;2.47;;;1.50;;
1446;SDS011;717;51.522;7.266;2023-02-28T00:26:29;3.17;;;1.77;;
1446;SDS011;717;51.522;7.266;2023-02-28T00:28:58;2.33;;;1.33;;
1446;SDS011;717;51.522;7.266;2023-02-28T00:31:26;2.10;;;1.67;;
1446;SDS011;717;51.522;7.266;2023-02-28T00:33:55;2.23;;;1.43;;
1446;SDS011;717;51.522;7.266;2023-02-28T00:36:23;2.33;;;1.23;;
1446;SDS011;717;51.522;7.266;2023-02-28T00:38:52;2.63;;;1.40;;
1446;SDS011;717;51.522;7.266;2023-02-28T00:41:23;2.80;;;1.70;;
1446;SDS011;717;51.522;7.266;2023-02-28T00:43:51;3.60;;;1.50;;
1446;SDS011;717;51.522;7.266;2023-02-28T00:46:20;2.23;;;1.50;;
1446;SDS011;717;51.522;7.266;2023-02-28T00:48:48;2.23;;;1.20;;
1446;SDS011;717;51.522;7.266;2023-02-28T00:51:17;4.90;;;1.50;;
1446;SDS011;717;51.522;7.266;2023-02-28T00:53:45;3.77;;;1.50;;
1446;SDS011;717;51.522;7.266;2023-02-28T00:56:14;4.67;;;1.40;;
1446;SDS011;717;51.522;7.266;2023-02-28T00:58:45;2.30;;;1.40;;
1446;SDS011;717;51.522;7.266;2023-02-28T01:01:13;3.13;;;1.30;;
1446;SDS011;717;51.522;7.266;2023-02-28T01:03:42;1.23;;;1.13;;
1446;SDS011;717;51.522;7.266;2023-02-28T01:06:10;2.97;;;1.47;;
1446;SDS011;717;51.522;7.266;2023-02-28T01:08:39;2.73;;;1.33;;
1446;SDS011;717;51.522;7.266;2023-02-28T01:11:08;3.23;;;1.57;;
1446;SDS011;717;51.522;7.266;2023-02-28T01:13:38;2.40;;;1.33;;
1446;SDS011;717;51.522;7.266;2023-02-28T01:16:09;1.53;;;1.10;;
1446;SDS011;717;51.522;7.266;2023-02-28T01:18:38;2.10;;;1.07;;
1446;SDS011;717;51.522;7.266;2023-02-28T01:21:07;3.03;;;1.30;;
1446;SDS011;717;51.522;7.266;2023-02-28T01:23:37;2.80;;;1.37;;
1446;SDS011;717;51.522;7.266;2023-02-28T01:26:06;1.33;;;1.17;;
1446;SDS011;717;51.522;7.266;2023-02-28T01:28:36;3.97;;;1.10;;
1446;SDS011;717;51.522;7.266;2023-02-28T01:31:05;3.23;;;1.30;;
1446;SDS011;717;51.522;7.266;2023-02-28T01:33:36;2.80;;;1.20;;
1446;SDS011;717;51.522;7.266;2023-02-28T01:36:07;2.97;;;1.20;;
1446;SDS011;717;51.522;7.266;2023-02-28T01:38:38;2.23;;;1.20;;
1446;SDS011;717;51.522;7.266;2023-02-28T01:41:07;2.13;;;0.90;;
1446;SDS011;717;51.522;7.266;2023-02-28T01:46:28;1.87;;;1.00;;
1446;SDS011;717;51.522;7.266;2023-02-28T01:49:02;1.60;;;1.30;;
1446;SDS011;717;51.522;7.266;2023-02-28T01:51:38;2.23;;;1.00;;
1446;SDS011;717;51.522;7.266;2023-02-28T01:54:16;1.40;;;0.97;;
1446;SDS011;717;51.522;7.266;2023-02-28T01:56:47;1.90;;;1.10;;
1446;SDS011;717;51.522;7.266;2023-02-28T01:59:21;2.00;;;1.30;;
1446;SDS011;717;51.522;7.266;2023-02-28T02:01:52;3.03;;;1.20;;
1446;SDS011;717;51.522;7.266;2023-02-28T02:04:24;2.27;;;1.10;;
1446;SDS011;717;51.522;7.266;2023-02-28T02:06:58;1.93;;;1.03;;
1446;SDS011;717;51.522;7.266;2023-02-28T02:09:27;1.60;;;1.13;;
1446;SDS011;717;51.522;7.266;2023-02-28T02:11:56;1.30;;;1.17;;
1446;SDS011;717;51.522;7.266;2023-02-28T02:14:30;2.37;;;1.40;;
1446;SDS011;717;51.522;7.266;2023-02-28T02:17:05;3.10;;;1.10;;
1446;SDS011;717;51.522;7.266;2023-02-28T02:19:59;1.97;;;1.00;;
1446;SDS011;717;51.522;7.266;2023-02-28T02:25:42;1.40;;;1.00;;
1446;SDS011;717;51.522;7.266;2023-02-28T02:31:16;2.37;;;1.00;;
1446;SDS011;717;51.522;7.266;2023-02-28T02:36:59;1.83;;;1.10;;
1446;SDS011;717;51.522;7.266;2023-02-28T02:39:37;1.20;;;1.10;;
1446;SDS011;717;51.522;7.266;2023-02-28T02:42:14;1.67;;;1.27;;
1446;SDS011;717;51.522;7.266;2023-02-28T02:44:47;1.70;;;1.20;;
1446;SDS011;717;51.522;7.266;2023-02-28T02:47:20;3.17;;;1.13;;
1446;SDS011;717;51.522;7.266;2023-02-28T02:49:56;2.83;;;1.30;;
1446;SDS011;717;51.522;7.266;2023-02-28T02:52:29;2.90;;;1.27;;
1446;SDS011;717;51.522;7.266;2023-02-28T02:55:02;1.63;;;1.13;;
1446;SDS011;717;51.522;7.266;2023-02-28T02:57:36;2.33;;;1.00;;
1446;SDS011;717;51.522;7.266;2023-02-28T03:00:10;1.83;;;1.10;;
1446;SDS011;717;51.522;7.266;2023-02-28T03:02:40;2.70;;;0.90;;
1446;SDS011;717;51.522;7.266;2023-02-28T03:05:15;2.30;;;1.00;;
1446;SDS011;717;51.522;7.266;2023-02-28T03:07:49;3.40;;;0.97;;
1446;SDS011;717;51.522;7.266;2023-02-28T03:10:28;1.30;;;0.90;;
1446;SDS011;717;51.522;7.266;2023-02-28T03:13:09;1.10;;;0.80;;
1446;SDS011;717;51.522;7.266;2023-02-28T03:15:56;1.03;;;0.87;;
1446;SDS011;717;51.522;7.266;2023-02-28T03:18:36;1.83;;;1.00;;
1446;SDS011;717;51.522;7.266;2023-02-28T03:21:15;1.93;;;0.97;;
1446;SDS011;717;51.522;7.266;2023-02-28T03:23:52;0.93;;;0.80;;
1446;SDS011;717;51.522;7.266;2023-02-28T03:26:30;2.30;;;1.20;;
1446;SDS011;717;51.522;7.266;2023-02-28T03:29:03;2.53;;;0.90;;
1446;SDS011;717;51.522;7.266;2023-02-28T03:31:38;2.10;;;1.00;;
1446;SDS011;717;51.522;7.266;2023-02-28T03:34:12;2.53;;;1.00;;
1446;SDS011;717;51.522;7.266;2023-02-28T03:36:48;1.23;;;0.87;;
1446;SDS011;717;51.522;7.266;2023-02-28T03:39:21;1.47;;;0.90;;
1446;SDS011;717;51.522;7.266;2023-02-28T03:41:56;2.13;;;0.77;;
1446;SDS011;717;51.522;7.266;2023-02-28T03:44:28;2.47;;;0.83;;
1446;SDS011;717;51.522;7.266;2023-02-28T03:47:00;2.13;;;0.93;;
1446;SDS011;717;51.522;7.266;2023-02-28T03:49:34;2.10;;;1.03;;
1446;SDS011;717;51.522;7.266;2023-02-28T03:52:11;1.80;;;0.80;;
1446;SDS011;717;51.522;7.266;2023-02-28T03:54:41;2.40;;;0.83;;
1446;SDS011;717;51.522;7.266;2023-02-28T03:57:15;1.43;;;0.90;;
1446;SDS011;717;51.522;7.266;2023-02-28T03:59:52;1.20;;;0.90;;
1446;SDS011;717;51.522;7.266;2023-02-28T04:02:24;2.73;;;1.00;;
1446;SDS011;717;51.522;7.266;2023-02-28T04:04:53;1.90;;;1.03;;
1446;SDS011;717;51.522;7.266;2023-02-28T04:07:24;2.13;;;0.80;;
1446;SDS011;717;51.522;7.266;2023-02-28T04:09:56;1.13;;;1.00;;
1446;SDS011;717;51.522;7.266;2023-02-28T04:12:25;3.77;;;1.03;;
1446;SDS011;717;51.522;7.266;2023-02-28T04:14:54;1.50;;;0.80;;
1446;SDS011;717;51.522;7.266;2023-02-28T04:17:23;1.23;;;0.90;;
1446;SDS011;717;51.522;7.266;2023-02-28T04:19:52;2.57;;;1.00;;
1446;SDS011;717;51.522;7.266;2023-02-28T04:22:25;1.13;;;0.87;;
1446;SDS011;717;51.522;7.266;2023-02-28T04:24:53;2.23;;;1.13;;
1446;SDS011;717;51.522;7.266;2023-02-28T04:27:22;0.93;;;0.80;;
1446;SDS011;717;51.522;7.266;2023-02-28T04:29:50;1.40;;;1.03;;
1446;SDS011;717;51.522;7.266;2023-02-28T04:32:19;2.70;;;1.13;;
1446;SDS011;717;51.522;7.266;2023-02-28T04:34:47;1.97;;;1.00;;
1446;SDS011;717;51.522;7.266;2023-02-28T04:37:16;2.30;;;0.80;;
1446;SDS011;717;51.522;7.266;2023-02-28T04:39:47;2.60;;;0.63;;
1446;SDS011;717;51.522;7.266;2023-02-28T04:42:15;1.67;;;1.00;;
1446;SDS011;717;51.522;7.266;2023-02-28T04:44:44;4.00;;;0.90;;
1446;SDS011;717;51.522;7.266;2023-02-28T04:47:12;2.23;;;1.03;;
1446;SDS011;717;51.522;7.266;2023-02-28T04:49:41;1.63;;;1.17;;
1446;SDS011;717;51.522;7.266;2023-02-28T04:52:09;1.00;;;1.00;;
1446;SDS011;717;51.522;7.266;2023-02-28T04:54:38;1.53;;;1.20;;
1446;SDS011;717;51.522;7.266;2023-02-28T04:57:09;0.90;;;0.90;;
1446;SDS011;717;51.522;7.266;2023-02-28T04:59:38;1.57;;;1.00;;
1446;SDS011;717;51.522;7.266;2023-02-28T05:02:06;1.43;;;1.10;;
1446;SDS011;717;51.522;7.266;2023-02-28T05:04:35;2.33;;;1.10;;
1446;SDS011;717;51.522;7.266;2023-02-28T05:07:04;1.53;;;0.90;;
1446;SDS011;717;51.522;7.266;2023-02-28T05:09:32;1.20;;;1.10;;
1446;SDS011;717;51.522;7.266;2023-02-28T05:12:01;1.40;;;1.10;;
1446;SDS011;717;51.522;7.266;2023-02-28T05:14:32;1.37;;;1.00;;
1446;SDS011;717;51.522;7.266;2023-02-28T05:17:01;1.07;;;0.97;;
1446;SDS011;717;51.522;7.266;2023-02-28T05:19:30;2.07;;;1.13;;
1446;SDS011;717;51.522;7.266;2023-02-28T05:21:58;1.13;;;1.00;;
1446;SDS011;717;51.522;7.266;2023-02-28T05:24:27;1.50;;;1.13;;
1446;SDS011;717;51.522;7.266;2023-02-28T05:26:56;2.13;;;0.93;;
1446;SDS011;717;51.522;7.266;2023-02-28T05:29:25;1.80;;;1.07;;
1446;SDS011;717;51.522;7.266;2023-02-28T05:31:56;1.37;;;0.93;;
1446;SDS011;717;51.522;7.266;2023-02-28T05:34:24;1.00;;;0.80;;
1446;SDS011;717;51.522;7.266;2023-02-28T05:36:53;1.70;;;0.97;;
1446;SDS011;717;51.522;7.266;2023-02-28T05:39:21;3.07;;;0.90;;
1446;SDS011;717;51.522;7.266;2023-02-28T05:41:50;1.97;;;1.30;;
1446;SDS011;717;51.522;7.266;2023-02-28T05:44:18;1.60;;;1.07;;
1446;SDS011;717;51.522;7.266;2023-02-28T05:46:47;1.30;;;1.00;;
1446;SDS011;717;51.522;7.266;2023-02-28T05:49:18;1.07;;;0.97;;
1446;SDS011;717;51.522;7.266;2023-02-28T05:51:47;1.53;;;1.10;;
1446;SDS011;717;51.522;7.266;2023-02-28T05:54:15;1.30;;;1.20;;
1446;SDS011;717;51.522;7.266;2023-02-28T05:56:44;2.00;;;1.23;;
1446;SDS011;717;51.522;7.266;2023-02-28T05:59:12;1.87;;;1.10;;
1446;SDS011;717;51.522;7.266;2023-02-28T06:01:42;1.40;;;1.20;;
1446;SDS011;717;51.522;7.266;2023-02-28T06:04:14;1.47;;;1.27;;
1446;SDS011;717;51.522;7.266;2023-02-28T06:06:46;3.47;;;1.40;;
1446;SDS011;717;51.522;7.266;2023-02-28T06:09:16;2.33;;;1.27;;
1446;SDS011;717;51.522;7.266;2023-02-28T06:11:45;2.00;;;1.30;;
1446;SDS011;717;51.522;7.266;2023-02-28T06:14:14;1.20;;;1.10;;
1446;SDS011;717;51.522;7.266;2023-02-28T06:16:44;1.30;;;1.20;;
1446;SDS011;717;51.522;7.266;2023-02-28T06:19:13;1.70;;;1.30;;
1446;SDS011;717;51.522;7.266;2023-02-28T06:21:42;2.17;;;1.40;;
1446;SDS011;717;51.522;7.266;2023-02-28T06:24:13;2.53;;;1.20;;
1446;SDS011;717;51.522;7.266;2023-02-28T06:26:42;1.97;;;1.33;;
1446;SDS011;717;51.522;7.266;2023-02-28T06:29:11;1.97;;;1.50;;
1446;SDS011;717;51.522;7.266;2023-02-28T06:31:43;3.93;;;1.67;;
1446;SDS011;717;51.522;7.266;2023-02-28T06:34:12;1.63;;;1.40;;
1446;SDS011;717;51.522;7.266;2023-02-28T06:36:41;1.67;;;1.20;;
1446;SDS011;717;51.522;7.266;2023-02-28T06:39:10;1.60;;;1.20;;
1446;SDS011;717;51.522;7.266;2023-02-28T06:41:41;2.97;;;1.60;;
1446;SDS011;717;51.522;7.266;2023-02-28T06:44:11;2.13;;;1.30;;
1446;SDS011;717;51.522;7.266;2023-02-28T06:46:41;2.77;;;1.47;;
1446;SDS011;717;51.522;7.266;2023-02-28T06:49:10;3.80;;;1.43;;
1446;SDS011;717;51.522;7.266;2023-02-28T06:51:42;2.87;;;1.53;;
1446;SDS011;717;51.522;7.266;2023-02-28T06:54:12;2.93;;;1.30;;
1446;SDS011;717;51.522;7.266;2023-02-28T06:56:44;2.40;;;1.60;;
1446;SDS011;717;51.522;7.266;2023-02-28T06:59:12;1.67;;;1.37;;
1446;SDS011;717;51.522;7.266;2023-02-28T07:01:41;2.33;;;1.40;;
1446;SDS011;717;51.522;7.266;2023-02-28T07:04:10;3.20;;;1.50;;
1446;SDS011;717;51.522;7.266;2023-02-28T07:06:38;2.63;;;1.60;;
1446;SDS011;717;51.522;7.266;2023-02-28T07:09:07;2.00;;;1.53;;
1446;SDS011;717;51.522;7.266;2023-02-28T07:11:35;3.70;;;1.70;;
1446;SDS011;717;51.522;7.266;2023-02-28T07:14:06;3.20;;;1.57;;
1446;SDS011;717;51.522;7.266;2023-02-28T07:16:35;2.67;;;1.37;;
1446;SDS011;717;51.522;7.266;2023-02-28T07:19:04;2.60;;;1.60;;
1446;SDS011;717;51.522;7.266;2023-02-28T07:21:32;1.77;;;1.30;;
1446;SDS011;717;51.522;7.266;2023-02-28T07:24:01;3.33;;;1.90;;
1446;SDS011;717;51.522;7.266;2023-02-28T07:26:29;1.83;;;1.10;;
1446;SDS011;717;51.522;7.266;2023-02-28T07:28:59;2.63;;;1.50;;
1446;SDS011;717;51.522;7.266;2023-02-28T07:31:30;4.67;;;1.67;;
1446;SDS011;717;51.522;7.266;2023-02-28T07:33:59;1.40;;;1.20;;
1446;SDS011;717;51.522;7.266;2023-02-28T07:36:28;1.90;;;1.30;;
1446;SDS011;717;51.522;7.266;2023-02-28T07:38:58;2.87;;;1.53;;
1446;SDS011;717;51.522;7.266;2023-02-28T07:41:27;3.50;;;1.20;;
1446;SDS011;717;51.522;7.266;2023-02-28T07:43:58;1.73;;;1.40;;
1446;SDS011;717;51.522;7.266;2023-02-28T07:46:30;1.87;;;1.40;;
1446;SDS011;717;51.522;7.266;2023-02-28T07:49:01;3.03;;;1.30;;
1446;SDS011;717;51.522;7.266;2023-02-28T07:51:30;4.03;;;1.97;;
1446;SDS011;717;51.522;7.266;2023-02-28T07:53:59;2.23;;;1.50;;
1446;SDS011;717;51.522;7.266;2023-02-28T07:56:28;4.17;;;1.30;;
1446;SDS011;717;51.522;7.266;2023-02-28T07:58:56;1.67;;;1.40;;
1446;SDS011;717;51.522;7.266;2023-02-28T08:01:26;1.87;;;1.43;;
1446;SDS011;717;51.522;7.266;2023-02-28T08:03:57;2.43;;;1.40;;
1446;SDS011;717;51.522;7.266;2023-02-28T08:06:26;1.80;;;1.50;;
1446;SDS011;717;51.522;7.266;2023-02-28T08:08:55;3.47;;;1.60;;
1446;SDS011;717;51.522;7.266;2023-02-28T08:11:23;4.20;;;1.47;;
1446;SDS011;717;51.522;7.266;2023-02-28T08:13:52;2.17;;;1.40;;
1446;SDS011;717;51.522;7.266;2023-02-28T08:16:22;4.00;;;1.53;;
1446;SDS011;717;51.522;7.266;2023-02-28T08:18:51;1.73;;;1.37;;
1446;SDS011;717;51.522;7.266;2023-02-28T08:21:23;2.90;;;1.40;;
1446;SDS011;717;51.522;7.266;2023-02-28T08:23:51;3.17;;;1.70;;
1446;SDS011;717;51.522;7.266;2023-02-28T08:26:21;3.43;;;1.37;;
1446;SDS011;717;51.522;7.266;2023-02-28T08:28:50;2.43;;;1.60;;
1446;SDS011;717;51.522;7.266;2023-02-28T08:31:19;2.40;;;1.47;;
1446;SDS011;717;51.522;7.266;2023-02-28T08:33:48;2.33;;;1.67;;
1446;SDS011;717;51.522;7.266;2023-02-28T08:36:17;3.13;;;1.63;;
1446;SDS011;717;51.522;7.266;2023-02-28T08:38:48;2.13;;;1.80;;
1446;SDS011;717;51.522;7.266;2023-02-28T08:41:16;2.83;;;1.43;;
1446;SDS011;717;51.522;7.266;2023-02-28T08:43:45;2.20;;;1.57;;
1446;SDS011;717;51.522;7.266;2023-02-28T08:46:14;2.13;;;1.40;;
1446;SDS011;717;51.522;7.266;2023-02-28T08:48:43;1.90;;;1.27;;
1446;SDS011;717;51.522;7.266;2023-02-28T08:51:12;4.40;;;1.57;;
1446;SDS011;717;51.522;7.266;2023-02-28T08:53:43;1.40;;;1.07;;
1446;SDS011;717;51.522;7.266;2023-02-28T08:56:17;1.70;;;1.40;;
1446;SDS011;717;51.522;7.266;2023-02-28T08:58:46;3.27;;;1.43;;
1446;SDS011;717;51.522;7.266;2023-02-28T09:01:16;2.30;;;1.33;;
1446;SDS011;717;51.522;7.266;2023-02-28T09:03:46;1.43;;;1.23;;
1446;SDS011;717;51.522;7.266;2023-02-28T09:06:17;1.83;;;1.50;;
1446;SDS011;717;51.522;7.266;2023-02-28T09:08:46;2.33;;;1.47;;
1446;SDS011;717;51.522;7.266;2023-02-28T09:11:18;3.17;;;1.40;;
1446;SDS011;717;51.522;7.266;2023-02-28T09:13:47;2.37;;;1.40;;
1446;SDS011;717;51.522;7.266;2023-02-28T09:16:16;1.83;;;1.40;;
1446;SDS011;717;51.522;7.266;2023-02-28T09:18:45;1.30;;;1.20;;
1446;SDS011;717;51.522;7.266;2023-02-28T09:21:15;2.07;;;1.50;;
1446;SDS011;717;51.522;7.266;2023-02-28T09:23:45;1.40;;;1.30;;
1446;SDS011;717;51.522;7.266;2023-02-28T09:26:18;2.87;;;1.50;;
1446;SDS011;717;51.522;7.266;2023-02-28T09:28:50;1.33;;;1.20;;
1446;SDS011;717;51.522;7.266;2023-02-28T09:31:19;2.00;;;1.20;;
1446;SDS011;717;51.522;7.266;2023-02-28T09:33:50;2.50;;;1.20;;
1446;SDS011;717;51.522;7.266;2023-02-28T09:36:20;2.03;;;1.33;;
1446;SDS011;717;51.522;7.266;2023-02-28T09:38:50;1.70;;;1.20;;
1446;SDS011;717;51.522;7.266;2023-02-28T09:41:22;1.20;;;1.10;;
1446;SDS011;717;51.522;7.266;2023-02-28T09:43:53;1.50;;;1.30;;
1446;SDS011;717;51.522;7.266;2023-02-28T09:46:28;1.20;;;1.10;;
1446;SDS011;717;51.522;7.266;2023-02-28T09:49:00;2.83;;;1.50;;
1446;SDS011;717;51.522;7.266;2023-02-28T09:51:36;2.60;;;1.30;;
1446;SDS011;717;51.522;7.266;2023-02-28T09:54:13;1.43;;;1.30;;
1446;SDS011;717;51.522;7.266;2023-02-28T09:56:48;2.63;;;1.10;;
1446;SDS011;717;51.522;7.266;2023-02-28T10:02:19;1.30;;;1.20;;
1446;SDS011;717;51.522;7.266;2023-02-28T10:05:07;2.57;;;1.60;;
1446;SDS011;717;51.522;7.266;2023-02-28T10:07:45;2.53;;;1.53;;
1446;SDS011;717;51.522;7.266;2023-02-28T10:10:26;4.03;;;1.60;;
1446;SDS011;717;51.522;7.266;2023-02-28T10:13:00;1.20;;;1.10;;
1446;SDS011;717;51.522;7.266;2023-02-28T10:15:32;1.40;;;1.20;;
1446;SDS011;717;51.522;7.266;2023-02-28T10:18:04;1.27;;;1.10;;
1446;SDS011;717;51.522;7.266;2023-02-28T10:20:38;4.63;;;1.60;;
1446;SDS011;717;51.522;7.266;2023-02-28T10:23:10;3.80;;;1.30;;
1446;SDS011;717;51.522;7.266;2023-02-28T10:25:44;1.20;;;1.10;;
1446;SDS011;717;51.522;7.266;2023-02-28T10:28:17;2.00;;;1.20;;
1446;SDS011;717;51.522;7.266;2023-02-28T10:30:47;3.10;;;1.50;;
1446;SDS011;717;51.522;7.266;2023-02-28T10:33:18;1.33;;;0.97;;
1446;SDS011;717;51.522;7.266;2023-02-28T10:35:50;1.57;;;0.83;;
1446;SDS011;717;51.522;7.266;2023-02-28T10:38:20;1.50;;;1.00;;
1446;SDS011;717;51.522;7.266;2023-02-28T10:40:51;0.70;;;0.70;;
1446;SDS011;717;51.522;7.266;2023-02-28T10:43:33;1.97;;;1.10;;
1446;SDS011;717;51.522;7.266;2023-02-28T10:46:03;1.17;;;0.93;;
1446;SDS011;717;51.522;7.266;2023-02-28T10:48:40;1.33;;;0.90;;
1446;SDS011;717;51.522;7.266;2023-02-28T10:51:13;1.83;;;0.90;;
1446;SDS011;717;51.522;7.266;2023-02-28T10:53:47;0.90;;;0.80;;
1446;SDS011;717;51.522;7.266;2023-02-28T10:56:18;1.40;;;0.83;;
1446;SDS011;717;51.522;7.266;2023-02-28T10:58:52;2.23;;;1.10;;
1446;SDS011;717;51.522;7.266;2023-02-28T11:01:24;2.50;;;0.73;;
1446;SDS011;717;51.522;7.266;2023-02-28T11:04:02;1.80;;;1.10;;
1446;SDS011;717;51.522;7.266;2023-02-28T11:06:31;1.87;;;0.80;;
1446;SDS011;717;51.522;7.266;2023-02-28T11:09:03;0.60;;;0.60;;
1446;SDS011;717;51.522;7.266;2023-02-28T11:11:44;0.80;;;0.70;;
1446;SDS011;717;51.522;7.266;2023-02-28T11:14:19;1.07;;;0.80;;
1446;SDS011;717;51.522;7.266;2023-02-28T11:16:50;1.97;;;0.97;;
1446;SDS011;717;51.522;7.266;2023-02-28T11:19:20;1.13;;;0.90;;
1446;SDS011;717;51.522;7.266;2023-02-28T11:21:53;2.00;;;0.80;;
1446;SDS011;717;51.522;7.266;2023-02-28T11:24:24;2.60;;;1.00;;
1446;SDS011;717;51.522;7.266;2023-02-28T11:26:55;1.87;;;1.07;;
1446;SDS011;717;51.522;7.266;2023-02-28T11:29:28;2.53;;;0.83;;
1446;SDS011;717;51.522;7.266;2023-02-28T11:32:00;1.73;;;1.03;;
1446;SDS011;717;51.522;7.266;2023-02-28T11:34:38;1.10;;;1.00;;
1446;SDS011;717;51.522;7.266;2023-02-28T11:37:10;2.47;;;1.23;;
1446;SDS011;717;51.522;7.266;2023-02-28T11:39:41;1.70;;;1.20;;
1446;SDS011;717;51.522;7.266;2023-02-28T11:45:15;1.73;;;1.00;;
1446;SDS011;717;51.522;7.266;2023-02-28T11:47:53;1.20;;;0.90;;
1446;SDS011;717;51.522;7.266;2023-02-28T11:50:39;1.53;;;1.00;;
1446;SDS011;717;51.522;7.266;2023-02-28T11:53:16;2.20;;;1.33;;
1446;SDS011;717;51.522;7.266;2023-02-28T11:55:52;1.73;;;1.50;;
1446;SDS011;717;51.522;7.266;2023-02-28T11:58:29;1.30;;;1.20;;
1446;SDS011;717;51.522;7.266;2023-02-28T12:01:17;2.27;;;1.27;;
1446;SDS011;717;51.522;7.266;2023-02-28T12:03:58;1.20;;;1.10;;
1446;SDS011;717;51.522;7.266;2023-02-28T12:06:38;1.30;;;1.10;;
1446;SDS011;717;51.522;7.266;2023-02-28T12:09:17;1.83;;;1.40;;
1446;SDS011;717;51.522;7.266;2023-02-28T12:11:59;1.10;;;1.00;;
1446;SDS011;717;51.522;7.266;2023-02-28T12:14:42;1.00;;;0.90;;
1446;SDS011;717;51.522;7.266;2023-02-28T12:17:25;1.37;;;1.20;;
1446;SDS011;717;51.522;7.266;2023-02-28T12:20:05;1.83;;;1.20;;
1446;SDS011;717;51.522;7.266;2023-02-28T12:22:45;1.93;;;1.10;;
1446;SDS011;717;51.522;7.266;2023-02-28T12:25:31;1.90;;;1.30;;
1446;SDS011;717;51.522;7.266;2023-02-28T12:28:15;1.03;;;1.03;;
1446;SDS011;717;51.522;7.266;2023-02-28T12:30:49;1.97;;;1.30;;
1446;SDS011;717;51.522;7.266;2023-02-28T12:33:25;1.70;;;1.47;;
1446;SDS011;717;51.522;7.266;2023-02-28T12:35:58;1.77;;;1.60;;
1446;SDS011;717;51.522;7.266;2023-02-28T12:38:33;1.57;;;1.40;;
1446;SDS011;717;51.522;7.266;2023-02-28T12:41:08;2.23;;;1.40;;
1446;SDS011;717;51.522;7.266;2023-02-28T12:43:41;2.30;;;1.90;;
1446;SDS011;717;51.522;7.266;2023-02-28T12:46:14;1.73;;;1.55;;
1446;SDS011;717;51.522;7.266;2023-02-28T12:48:50;2.17;;;1.80;;
1446;SDS011;717;51.522;7.266;2023-02-28T12:51:23;2.85;;;1.80;;
1446;SDS011;717;51.522;7.266;2023-02-28T12:53:54;3.80;;;1.73;;
1446;SDS011;717;51.522;7.266;2023-02-28T12:56:32;2.75;;;2.10;;
1446;SDS011;717;51.522;7.266;2023-02-28T12:59:10;1.53;;;1.43;;
1446;SDS011;717;51.522;7.266;2023-02-28T13:04:51;1.42;;;1.33;;
1446;SDS011;717;51.522;7.266;2023-02-28T13:07:33;1.60;;;1.50;;
1446;SDS011;717;51.522;7.266;2023-02-28T13:10:20;1.77;;;1.67;;
1446;SDS011;717;51.522;7.266;2023-02-28T13:12:49;2.22;;;1.73;;
1446;SDS011;717;51.522;7.266;2023-02-28T13:15:19;2.30;;;1.77;;
1446;SDS011;717;51.522;7.266;2023-02-28T13:17:51;2.58;;;1.67;;
1446;SDS011;717;51.522;7.266;2023-02-28T13:20:24;2.55;;;1.70;;
1446;SDS011;717;51.522;7.266;2023-02-28T13:22:54;2.35;;;1.60;;
1446;SDS011;717;51.522;7.266;2023-02-28T13:34:39;2.10;;;1.90;;
1446;SDS011;717;51.522;7.266;2023-02-28T13:43:02;1.92;;;1.77;;
1446;SDS011;717;51.522;7.266;2023-02-28T13:45:35;2.00;;;1.80;;
1446;SDS011;717;51.522;7.266;2023-02-28T13:48:04;1.92;;;1.73;;
1446;SDS011;717;51.522;7.266;2023-02-28T13:50:44;1.83;;;1.70;;
1446;SDS011;717;51.522;7.266;2023-02-28T13:53:27;2.70;;;1.90;;
1446;SDS011;717;51.522;7.266;2023-02-28T13:56:25;5.35;;;3.17;;
1446;SDS011;717;51.522;7.266;2023-02-28T13:59:04;2.22;;;1.70;;
1446;SDS011;717;51.522;7.266;2023-02-28T14:01:55;2.65;;;1.60;;
1446;SDS011;717;51.522;7.266;2023-02-28T14:04:43;2.85;;;1.50;;
1446;SDS011;717;51.522;7.266;2023-02-28T14:07:18;2.10;;;1.80;;
1446;SDS011;717;51.522;7.266;2023-02-28T14:09:54;1.90;;;1.70;;
1446;SDS011;717;51.522;7.266;2023-02-28T14:15:26;1.98;;;1.63;;
1446;SDS011;717;51.522;7.266;2023-02-28T14:18:05;2.10;;;1.77;;
1446;SDS011;717;51.522;7.266;2023-02-28T14:20:43;2.35;;;1.95;;
1446;SDS011;717;51.522;7.266;2023-02-28T14:23:15;2.05;;;1.73;;
1446;SDS011;717;51.522;7.266;2023-02-28T14:25:58;2.10;;;1.90;;
1446;SDS011;717;51.522;7.266;2023-02-28T14:28:37;1.80;;;1.70;;
1446;SDS011;717;51.522;7.266;2023-02-28T14:31:18;2.55;;;1.77;;
1446;SDS011;717;51.522;7.266;2023-02-28T14:34:03;2.50;;;1.80;;
1446;SDS011;717;51.522;7.266;2023-02-28T14:36:45;2.70;;;1.88;;
1446;SDS011;717;51.522;7.266;2023-02-28T14:39:15;2.70;;;2.00;;
1446;SDS011;717;51.522;7.266;2023-02-28T14:41:49;2.20;;;1.80;;
1446;SDS011;717;51.522;7.266;2023-02-28T14:44:18;1.73;;;1.60;;
1446;SDS011;717;51.522;7.266;2023-02-28T14:46:50;2.47;;;1.63;;
1446;SDS011;717;51.522;7.266;2023-02-28T14:49:21;1.88;;;1.75;;
1446;SDS011;717;51.522;7.266;2023-02-28T14:52:01;1.67;;;1.58;;
1446;SDS011;717;51.522;7.266;2023-02-28T14:54:34;2.00;;;1.50;;
1446;SDS011;717;51.522;7.266;2023-02-28T14:57:06;4.05;;;1.90;;
1446;SDS011;717;51.522;7.266;2023-02-28T14:59:56;2.70;;;2.00;;
1446;SDS011;717;51.522;7.266;2023-02-28T15:02:29;2.47;;;2.10;;
1446;SDS011;717;51.522;7.266;2023-02-28T15:05:02;3.60;;;2.05;;
1446;SDS011;717;51.522;7.266;2023-02-28T15:07:47;2.67;;;1.80;;
1446;SDS011;717;51.522;7.266;2023-02-28T15:10:17;3.28;;;1.83;;
1446;SDS011;717;51.522;7.266;2023-02-28T15:12:52;3.15;;;2.10;;
1446;SDS011;717;51.522;7.266;2023-02-28T15:15:23;2.15;;;1.80;;
1446;SDS011;717;51.522;7.266;2023-02-28T15:17:57;3.55;;;1.65;;
1446;SDS011;717;51.522;7.266;2023-02-28T15:20:28;2.38;;;1.67;;
1446;SDS011;717;51.522;7.266;2023-02-28T15:22:57;2.28;;;2.08;;
1446;SDS011;717;51.522;7.266;2023-02-28T15:25:26;2.30;;;1.90;;
1446;SDS011;717;51.522;7.266;2023-02-28T15:27:58;2.75;;;2.17;;
1446;SDS011;717;51.522;7.266;2023-02-28T15:30:28;2.83;;;2.22;;
1446;SDS011;717;51.522;7.266;2023-02-28T15:33:03;2.40;;;2.03;;
1446;SDS011;717;51.522;7.266;2023-02-28T15:35:36;1.98;;;1.73;;
1446;SDS011;717;51.522;7.266;2023-02-28T15:38:13;2.30;;;1.98;;
1446;SDS011;717;51.522;7.266;2023-02-28T15:40:44;3.47;;;1.85;;
1446;SDS011;717;51.522;7.266;2023-02-28T15:43:28;3.83;;;2.05;;
1446;SDS011;717;51.522;7.266;2023-02-28T15:45:58;2.83;;;2.30;;
1446;SDS011;717;51.522;7.266;2023-02-28T15:48:29;2.33;;;1.77;;
1446;SDS011;717;51.522;7.266;2023-02-28T15:51:01;3.97;;;2.10;;
1446;SDS011;717;51.522;7.266;2023-02-28T15:53:34;2.30;;;2.10;;
1446;SDS011;717;51.522;7.266;2023-02-28T15:56:18;2.95;;;1.90;;
1446;SDS011;717;51.522;7.266;2023-02-28T15:58:55;2.58;;;2.03;;
1446;SDS011;717;51.522;7.266;2023-02-28T16:01:26;2.85;;;2.20;;
1446;SDS011;717;51.522;7.266;2023-02-28T16:03:57;2.15;;;1.90;;
1446;SDS011;717;51.522;7.266;2023-02-28T16:06:32;2.33;;;1.95;;
1446;SDS011;717;51.522;7.266;2023-02-28T16:09:04;2.50;;;1.90;;
1446;SDS011;717;51.522;7.266;2023-02-28T16:11:37;2.17;;;1.98;;
1446;SDS011;717;51.522;7.266;2023-02-28T16:14:15;2.80;;;2.45;;
1446;SDS011;717;51.522;7.266;2023-02-28T16:16:46;2.72;;;1.90;;
1446;SDS011;717;51.522;7.266;2023-02-28T16:19:16;2.28;;;1.95;;
1446;SDS011;717;51.522;7.266;2023-02-28T16:21:45;3.08;;;1.75;;
1446;SDS011;717;51.522;7.266;2023-02-28T16:24:14;3.45;;;2.28;;
1446;SDS011;717;51.522;7.266;2023-02-28T16:26:44;2.90;;;2.10;;
1446;SDS011;717;51.522;7.266;2023-02-28T16:29:19;3.13;;;1.88;;
1446;SDS011;717;51.522;7.266;2023-02-28T16:31:52;2.60;;;1.85;;
1446;SDS011;717;51.522;7.266;2023-02-28T16:34:21;2.85;;;1.92;;
1446;SDS011;717;51.522;7.266;2023-02-28T16:36:50;3.00;;;2.03;;
1446;SDS011;717;51.522;7.266;2023-02-28T16:39:19;2.45;;;1.92;;
1446;SDS011;717;51.522;7.266;2023-02-28T16:41:48;2.78;;;1.70;;